KJOT/JOT METAR and TAF weather

Enter ICAO airport designator
Station Type Date Time Source
KJOT METAR 2022/01/26 07:35 UTC NOAA

KJOT 260735Z AUTO 00000KT 10SM CLR M20/M24 A3048 RMK AO2 T11961240


Station Type Date Time Source
KJOT Decoded METAR 2022/01/26 07:35 UTC NOAA

Joliet, Joliet Regional Airport, IL, United States (KJOT) 41-31-05N 088-10-31W
Jan 26, 2022 - 02:35 AM EST / 2022.01.26 0735 UTC
Wind: Calm:0
Visibility: 10 mile(s):0
Sky conditions: clear
Temperature: -3.3 F (-19.6 C)
Dew Point: -11.2 F (-24.0 C)
Relative Humidity: 68%
Pressure (altimeter): 30.48 in. Hg (1032 hPa)
ob: KJOT 260735Z AUTO 00000KT 10SM CLR M20/M24 A3048 RMK AO2 T11961240
cycle: 7

Station Type Date Time Source
KJOT TAF UTC NOAA

Error!

Example: see airport list